Time;durP1;ratioP1;P1;durP2;ratioP2;P2;SDS_P1;SDS_P2;PMS_P1;PMS_P2;Temp;Humidity;BMP_temperature;BMP_pressure;BME280_temperature;BME280_humidity;BME280_pressure;Samples;Min_cycle;Max_cycle;Signal;HPM_P1;HPM_P2
2023/10/19 00:00:49;;;;;;;;;;;16.20;56.40;;;;;;5109321;28;19916;-70
2023/10/19 00:03:15;;;;;;;;;;;16.10;56.50;;;;;;5108972;28;19927;-71
2023/10/19 00:05:41;;;;;;;;;;;16.10;56.50;;;;;;5109109;28;19935;-71
2023/10/19 00:08:23;;;;;;;;;;;16.10;56.60;;;;;;5109181;28;19946;-70
2023/10/19 00:10:55;;;;;;;;;;;16.10;56.70;;;;;;5109025;28;19916;-71
2023/10/19 00:13:22;;;;;;;;;;;16.10;56.70;;;;;;5108753;28;19961;-69
2023/10/19 00:15:53;;;;;;;;;;;16.20;56.60;;;;;;5108654;28;19968;-71
2023/10/19 00:21:07;;;;;;;;;;;17.00;55.40;;;;;;5090006;28;19916;-71
2023/10/19 00:23:37;;;;;;;;;;;17.50;54.30;;;;;;5088710;28;20260;-71
2023/10/19 00:26:08;;;;;;;;;;;18.00;53.30;;;;;;5088918;28;19962;-69
2023/10/19 00:28:35;;;;;;;;;;;18.50;52.10;;;;;;5089915;28;20271;-69
2023/10/19 00:31:04;;;;;;;;;;;19.20;50.70;;;;;;5088496;28;20461;-70
2023/10/19 00:33:32;;;;;;;;;;;19.90;49.30;;;;;;5088786;28;20011;-70
2023/10/19 00:36:06;;;;;;;;;;;20.70;47.80;;;;;;5088428;28;19917;-70
2023/10/19 00:41:21;;;;;;;;;;;21.90;45.20;;;;;;5110287;27;19908;-71
2023/10/19 00:43:48;;;;;;;;;;;22.50;44.20;;;;;;5109100;28;19923;-70
2023/10/19 00:48:59;;;;;;;;;;;23.20;42.90;;;;;;5131049;27;19907;-71
2023/10/19 00:51:37;;;;;;;;;;;23.50;42.30;;;;;;5129545;28;20495;-72
2023/10/19 00:54:08;;;;;;;;;;;23.60;41.80;;;;;;5129393;28;19916;-71
2023/10/19 00:56:34;;;;;;;;;;;23.80;41.50;;;;;;5130747;27;20270;-69
2023/10/19 00:59:07;;;;;;;;;;;24.00;41.20;;;;;;5129448;28;19927;-69
2023/10/19 01:01:36;;;;;;;;;;;24.10;41.00;;;;;;5129618;28;19919;-69
2023/10/19 01:04:04;;;;;;;;;;;24.20;40.80;;;;;;5129630;28;19922;-70
2023/10/19 01:06:31;;;;;;;;;;;24.40;40.70;;;;;;5129191;28;19919;-70
2023/10/19 01:08:57;;;;;;;;;;;24.40;40.60;;;;;;5129247;28;19920;-71
2023/10/19 01:11:28;;;;;;;;;;;24.40;40.50;;;;;;5130554;28;20002;-70
2023/10/19 01:13:53;;;;;;;;;;;24.50;40.50;;;;;;5129399;28;19916;-71
2023/10/19 01:16:22;;;;;;;;;;;24.50;40.50;;;;;;5129355;28;20251;-71
2023/10/19 01:18:53;;;;;;;;;;;24.60;40.30;;;;;;5129214;28;19923;-71
2023/10/19 01:21:21;;;;;;;;;;;24.60;40.20;;;;;;5128967;28;20000;-69
2023/10/19 01:23:48;;;;;;;;;;;24.60;40.20;;;;;;5163851;27;19923;-71
2023/10/19 01:26:18;;;;;;;;;;;24.60;40.30;;;;;;5128905;28;20373;-70
2023/10/19 01:28:47;;;;;;;;;;;24.50;40.30;;;;;;5129971;27;19923;-69
2023/10/19 01:31:22;;;;;;;;;;;24.50;40.40;;;;;;5129060;28;19916;-69
2023/10/19 01:33:48;;;;;;;;;;;24.40;40.40;;;;;;5163423;27;19966;-70
2023/10/19 01:36:14;;;;;;;;;;;24.40;40.60;;;;;;5129945;27;19975;-69
2023/10/19 01:38:40;;;;;;;;;;;24.30;40.70;;;;;;5163419;27;20011;-70
2023/10/19 01:41:13;;;;;;;;;;;24.20;40.80;;;;;;5163587;27;19915;-69
2023/10/19 01:43:40;;;;;;;;;;;24.20;40.90;;;;;;5128863;28;19919;-69
2023/10/19 01:46:11;;;;;;;;;;;24.10;41.00;;;;;;5163252;27;19963;-69
2023/10/19 01:48:38;;;;;;;;;;;24.00;41.00;;;;;;5162597;27;20289;-69
2023/10/19 01:51:04;;;;;;;;;;;23.90;41.20;;;;;;5129816;27;20301;-69
2023/10/19 01:53:31;;;;;;;;;;;23.80;41.40;;;;;;5129778;27;20274;-71
2023/10/19 01:55:58;;;;;;;;;;;23.80;41.50;;;;;;5129597;27;20457;-71
2023/10/19 01:58:25;;;;;;;;;;;23.70;41.60;;;;;;5160140;27;20007;-71
2023/10/19 02:00:57;;;;;;;;;;;23.70;41.60;;;;;;5115794;28;19930;-71
2023/10/19 02:03:24;;;;;;;;;;;23.70;41.60;;;;;;5114430;28;19969;-69
2023/10/19 02:05:50;;;;;;;;;;;23.70;41.70;;;;;;5115759;28;19922;-71
2023/10/19 02:08:17;;;;;;;;;;;23.70;41.60;;;;;;5114468;28;20324;-71
2023/10/19 02:10:46;;;;;;;;;;;23.80;41.70;;;;;;5114352;28;19915;-69
2023/10/19 02:13:15;;;;;;;;;;;23.80;41.60;;;;;;5114372;28;19915;-69
2023/10/19 02:15:42;;;;;;;;;;;23.80;41.60;;;;;;5114522;28;19915;-71
2023/10/19 02:18:08;;;;;;;;;;;23.80;41.60;;;;;;5114431;28;19925;-71
2023/10/19 02:20:34;;;;;;;;;;;23.90;41.60;;;;;;5114158;28;19916;-70
2023/10/19 02:23:03;;;;;;;;;;;23.90;41.50;;;;;;5115500;28;19977;-70
2023/10/19 02:25:33;;;;;;;;;;;23.90;41.50;;;;;;5114371;28;19937;-70
2023/10/19 02:27:59;;;;;;;;;;;24.00;41.40;;;;;;5113935;28;19923;-69
2023/10/19 02:30:24;;;;;;;;;;;24.00;41.30;;;;;;5113978;28;19922;-70
2023/10/19 02:32:50;;;;;;;;;;;24.00;41.40;;;;;;5114229;28;20010;-70
2023/10/19 02:35:16;;;;;;;;;;;24.00;42.10;;;;;;5113830;28;19919;-70
2023/10/19 02:37:41;;;;;;;;;;;24.00;41.40;;;;;;5115109;28;19922;-70
2023/10/19 02:40:24;;;;;;;;;;;23.90;41.50;;;;;;5114935;28;19958;-69
2023/10/19 02:42:53;;;;;;;;;;;23.90;41.60;;;;;;5113807;28;20010;-70
2023/10/19 02:45:18;;;;;;;;;;;23.80;41.70;;;;;;5113964;28;20003;-72
2023/10/19 02:47:44;;;;;;;;;;;23.60;41.90;;;;;;5113533;28;19998;-71
2023/10/19 02:50:22;;;;;;;;;;;23.50;42.10;;;;;;5113528;28;19919;-71
2023/10/19 02:52:49;;;;;;;;;;;23.30;42.40;;;;;;5114068;28;20244;-71
2023/10/19 02:55:16;;;;;;;;;;;23.20;42.80;;;;;;5113757;28;19969;-69
2023/10/19 02:57:46;;;;;;;;;;;23.00;43.00;;;;;;5114858;28;19916;-70
2023/10/19 03:00:13;;;;;;;;;;;23.00;43.30;;;;;;5113660;28;19919;-69
2023/10/19 03:02:39;;;;;;;;;;;22.90;43.50;;;;;;5114859;28;19989;-69
2023/10/19 03:05:14;;;;;;;;;;;22.90;43.50;;;;;;5114767;28;20314;-69
2023/10/19 03:07:39;;;;;;;;;;;22.90;43.50;;;;;;5114405;28;19924;-71
2023/10/19 03:10:06;;;;;;;;;;;23.00;43.50;;;;;;5113922;28;20301;-71
2023/10/19 03:12:32;;;;;;;;;;;23.10;43.40;;;;;;5113043;28;19916;-70
2023/10/19 03:15:00;;;;;;;;;;;23.20;43.20;;;;;;5113098;28;20363;-69
2023/10/19 03:17:26;;;;;;;;;;;23.30;43.00;;;;;;5113214;28;19930;-69
2023/10/19 03:19:52;;;;;;;;;;;23.40;42.90;;;;;;5113324;28;19938;-71
2023/10/19 03:22:19;;;;;;;;;;;23.50;42.70;;;;;;5113211;28;19916;-69
2023/10/19 03:24:45;;;;;;;;;;;23.60;42.40;;;;;;5113308;28;19916;-71
2023/10/19 03:27:13;;;;;;;;;;;23.70;42.40;;;;;;5114018;28;20440;-69
2023/10/19 03:29:39;;;;;;;;;;;23.70;42.20;;;;;;5113111;28;20420;-70
2023/10/19 03:32:07;;;;;;;;;;;23.70;42.20;;;;;;5114268;28;19919;-70
2023/10/19 03:34:33;;;;;;;;;;;23.70;42.20;;;;;;5113058;28;19916;-70
2023/10/19 03:37:05;;;;;;;;;;;23.60;42.50;;;;;;5147412;27;20196;-69
2023/10/19 03:39:33;;;;;;;;;;;23.50;42.50;;;;;;5112653;28;19958;-69
2023/10/19 03:41:59;;;;;;;;;;;23.40;42.80;;;;;;5114258;28;20386;-69
2023/10/19 03:44:24;;;;;;;;;;;23.30;43.00;;;;;;5112908;28;19967;-71
2023/10/19 03:46:56;;;;;;;;;;;23.10;43.20;;;;;;5112396;28;19927;-69
2023/10/19 03:49:22;;;;;;;;;;;23.00;43.40;;;;;;5095850;28;19920;-70
2023/10/19 03:52:20;;;;;;;;;;;23.00;43.70;;;;;;5095710;28;19916;-69
2023/10/19 03:54:37;;;;;;;;;;;22.90;43.90;;;;;;5095185;28;19926;-69
2023/10/19 03:57:11;;;;;;;;;;;22.80;44.10;;;;;;5095614;28;19922;-70
2023/10/19 03:59:37;;;;;;;;;;;22.70;44.20;;;;;;5095259;28;19964;-70
2023/10/19 04:02:09;;;;;;;;;;;22.60;44.30;;;;;;5095381;28;19919;-71
2023/10/19 04:04:35;;;;;;;;;;;22.60;44.50;;;;;;5095469;28;19916;-69
2023/10/19 04:07:09;;;;;;;;;;;22.50;44.60;;;;;;5095058;28;19923;-69
2023/10/19 04:09:36;;;;;;;;;;;22.50;44.70;;;;;;5095153;28;19920;-71
2023/10/19 04:12:02;;;;;;;;;;;22.60;44.80;;;;;;5095021;28;20073;-70
2023/10/19 04:14:30;;;;;;;;;;;22.60;44.70;;;;;;5113291;28;20006;-71
2023/10/19 04:16:56;;;;;;;;;;;22.60;44.70;;;;;;5095202;28;19915;-71
2023/10/19 04:19:21;;;;;;;;;;;22.60;44.60;;;;;;5094821;28;20049;-69
2023/10/19 04:21:47;;;;;;;;;;;22.70;44.60;;;;;;5094927;28;19916;-69
2023/10/19 04:24:13;;;;;;;;;;;22.70;44.60;;;;;;5094743;28;20007;-70
2023/10/19 04:26:39;;;;;;;;;;;22.70;45.20;;;;;;5113024;28;19916;-69
2023/10/19 04:29:17;;;;;;;;;;;22.80;44.50;;;;;;5095041;28;19920;-69
2023/10/19 04:31:49;;;;;;;;;;;22.80;44.40;;;;;;5095070;28;19999;-71
2023/10/19 04:34:17;;;;;;;;;;;22.90;44.40;;;;;;5094630;28;19998;-69
2023/10/19 04:36:43;;;;;;;;;;;22.90;44.20;;;;;;5094593;28;19963;-70
2023/10/19 04:39:13;;;;;;;;;;;22.90;44.10;;;;;;5113240;28;19960;-70
2023/10/19 04:41:39;;;;;;;;;;;23.00;44.20;;;;;;5095193;28;19937;-69
2023/10/19 04:44:08;;;;;;;;;;;23.00;44.20;;;;;;5094606;28;20420;-69
2023/10/19 04:46:34;;;;;;;;;;;23.00;44.20;;;;;;5112744;28;20273;-69
2023/10/19 04:48:59;;;;;;;;;;;22.90;44.20;;;;;;5094543;28;20395;-70
2023/10/19 04:51:25;;;;;;;;;;;22.90;44.30;;;;;;5094767;28;19974;-71
2023/10/19 04:53:50;;;;;;;;;;;22.80;44.40;;;;;;5094687;28;19915;-70
2023/10/19 04:56:16;;;;;;;;;;;23.30;44.80;;;;;;5094448;28;19922;-70
2023/10/19 04:58:41;;;;;;;;;;;22.80;44.50;;;;;;5094492;28;19923;-69
2023/10/19 05:01:07;;;;;;;;;;;22.80;44.60;;;;;;5094743;28;19916;-69
2023/10/19 05:03:32;;;;;;;;;;;22.70;44.70;;;;;;5094493;28;19930;-71
2023/10/19 05:05:58;;;;;;;;;;;22.70;44.80;;;;;;5112568;28;19916;-69
2023/10/19 05:08:25;;;;;;;;;;;22.60;44.90;;;;;;5112797;28;19915;-70
2023/10/19 05:10:52;;;;;;;;;;;22.60;44.90;;;;;;5094322;28;19920;-71
2023/10/19 05:13:17;;;;;;;;;;;22.60;45.00;;;;;;5094416;28;19915;-70
2023/10/19 05:15:43;;;;;;;;;;;22.60;45.10;;;;;;5094560;28;19919;-70
2023/10/19 05:18:08;;;;;;;;;;;22.50;45.10;;;;;;5112558;28;19916;-71
2023/10/19 05:20:34;;;;;;;;;;;22.60;45.20;;;;;;5128525;28;19915;-71
2023/10/19 05:23:00;;;;;;;;;;;22.50;45.10;;;;;;5094256;28;19923;-71
2023/10/19 05:25:25;;;;;;;;;;;22.50;45.10;;;;;;5112698;28;19951;-71
2023/10/19 05:27:54;;;;;;;;;;;22.50;45.20;;;;;;5094205;28;20321;-70
2023/10/19 05:30:22;;;;;;;;;;;22.60;45.20;;;;;;5094143;28;19924;-70
2023/10/19 05:32:49;;;;;;;;;;;22.60;45.20;;;;;;5112829;28;19923;-70
2023/10/19 05:35:22;;;;;;;;;;;22.60;45.20;;;;;;5115453;28;19923;-70
2023/10/19 05:37:49;;;;;;;;;;;22.60;45.30;;;;;;5115651;28;19919;-71
2023/10/19 05:40:15;;;;;;;;;;;22.60;45.20;;;;;;5098234;28;19916;-69
2023/10/19 05:42:40;;;;;;;;;;;22.60;45.40;;;;;;5116240;28;20410;-68
2023/10/19 05:45:06;;;;;;;;;;;22.50;45.50;;;;;;5112893;28;19940;-69
2023/10/19 05:47:31;;;;;;;;;;;22.40;45.90;;;;;;5101159;28;20278;-69
2023/10/19 05:49:57;;;;;;;;;;;22.40;46.10;;;;;;5113648;28;19923;-68
2023/10/19 05:52:22;;;;;;;;;;;22.30;46.20;;;;;;5113713;28;20323;-68
2023/10/19 05:54:49;;;;;;;;;;;22.40;46.20;;;;;;5116270;27;19915;-69
2023/10/19 05:57:15;;;;;;;;;;;22.40;46.30;;;;;;5110885;28;20064;-69
2023/10/19 05:59:40;;;;;;;;;;;22.50;46.30;;;;;;5117699;27;20226;-66
2023/10/19 06:02:07;;;;;;;;;;;22.60;46.20;;;;;;5124017;27;19920;-67
2023/10/19 06:04:33;;;;;;;;;;;22.60;46.20;;;;;;5111225;27;20014;-69
2023/10/19 06:06:58;;;;;;;;;;;22.70;46.10;;;;;;5112458;27;20015;-69
2023/10/19 06:09:29;;;;;;;;;;;22.80;46.00;;;;;;5114547;27;20477;-69
2023/10/19 06:11:55;;;;;;;;;;;22.90;45.80;;;;;;5120969;27;19977;-69
2023/10/19 06:14:20;;;;;;;;;;;23.00;45.70;;;;;;5109603;27;20004;-69
2023/10/19 06:16:46;;;;;;;;;;;23.00;45.70;;;;;;5108518;27;19942;-69
2023/10/19 06:19:11;;;;;;;;;;;23.10;45.80;;;;;;5132562;27;20455;-69
2023/10/19 06:21:37;;;;;;;;;;;23.10;45.80;;;;;;5108500;27;19967;-69
2023/10/19 06:24:02;;;;;;;;;;;23.10;45.80;;;;;;5109735;27;19949;-69
2023/10/19 06:26:28;;;;;;;;;;;23.00;45.70;;;;;;5114772;27;19920;-69
2023/10/19 06:28:59;;;;;;;;;;;23.10;45.80;;;;;;5114385;27;19963;-69
2023/10/19 06:31:25;;;;;;;;;;;23.10;45.90;;;;;;5106639;27;19928;-69
2023/10/19 06:33:51;;;;;;;;;;;23.10;46.00;;;;;;5101906;28;19926;-69
2023/10/19 06:36:18;;;;;;;;;;;23.00;46.00;;;;;;5107696;27;19949;-70
2023/10/19 06:38:44;;;;;;;;;;;23.00;46.10;;;;;;5099263;28;19920;-69
2023/10/19 06:41:12;;;;;;;;;;;23.10;46.20;;;;;;5128365;27;19927;-69
2023/10/19 06:43:38;;;;;;;;;;;23.00;46.30;;;;;;5084739;28;19919;-73
2023/10/19 06:46:03;;;;;;;;;;;23.00;46.70;;;;;;5093610;27;20460;-72
2023/10/19 06:48:29;;;;;;;;;;;22.90;46.90;;;;;;5103634;27;19932;-73
2023/10/19 06:50:55;;;;;;;;;;;22.90;47.20;;;;;;5095440;28;19927;-70
2023/10/19 06:53:21;;;;;;;;;;;22.90;47.50;;;;;;5078458;28;20217;-69
2023/10/19 06:55:47;;;;;;;;;;;22.90;47.80;;;;;;5094533;28;20294;-72
2023/10/19 06:58:14;;;;;;;;;;;23.00;47.90;;;;;;5078395;27;19924;-73
2023/10/19 07:00:44;;;;;;;;;;;23.10;47.70;;;;;;5080796;27;19930;-70
2023/10/19 07:03:10;;;;;;;;;;;23.20;47.70;;;;;;5092334;28;20452;-76
2023/10/19 07:05:35;;;;;;;;;;;23.20;47.80;;;;;;5087289;28;19992;-71
2023/10/19 07:08:02;;;;;;;;;;;23.20;47.90;;;;;;5082406;28;20006;-73
2023/10/19 07:10:28;;;;;;;;;;;23.20;48.10;;;;;;5076813;28;19950;-72
2023/10/19 07:12:54;;;;;;;;;;;23.10;48.20;;;;;;5095284;28;20917;-71
2023/10/19 07:15:22;;;;;;;;;;;23.10;48.30;;;;;;5085761;27;20389;-73
2023/10/19 07:17:48;;;;;;;;;;;23.00;48.50;;;;;;5076144;28;19923;-72
2023/10/19 07:20:25;;;;;;;;;;;22.90;48.80;;;;;;5075873;28;19952;-78
2023/10/19 07:22:51;;;;;;;;;;;22.80;48.90;;;;;;5080967;28;19920;-74
2023/10/19 07:25:21;;;;;;;;;;;22.60;48.90;;;;;;5097452;27;19928;-74
2023/10/19 07:27:47;;;;;;;;;;;22.30;49.30;;;;;;5105773;27;19954;-74
2023/10/19 07:30:15;;;;;;;;;;;22.10;49.90;;;;;;5108697;27;19930;-72
2023/10/19 07:32:41;;;;;;;;;;;21.80;50.20;;;;;;5078024;28;19920;-77
2023/10/19 07:35:06;;;;;;;;;;;21.80;50.70;;;;;;5076657;28;19924;-79
2023/10/19 07:37:32;;;;;;;;;;;21.60;50.90;;;;;;5096252;27;19931;-75
2023/10/19 07:39:57;;;;;;;;;;;21.60;51.10;;;;;;5074587;28;19927;-74
2023/10/19 07:42:23;;;;;;;;;;;21.60;51.20;;;;;;5080525;27;19923;-75
2023/10/19 07:44:49;;;;;;;;;;;21.70;51.20;;;;;;5078228;27;19939;-73
2023/10/19 07:47:14;;;;;;;;;;;21.80;51.10;;;;;;5078604;27;20571;-74
2023/10/19 07:49:40;;;;;;;;;;;21.90;50.80;;;;;;5100259;27;19923;-74
2023/10/19 07:52:07;;;;;;;;;;;22.10;50.70;;;;;;5099948;27;19927;-74
2023/10/19 07:54:34;;;;;;;;;;;22.20;50.30;;;;;;5117310;27;19930;-79
2023/10/19 07:57:03;;;;;;;;;;;22.30;50.00;;;;;;5092034;27;19928;-75
2023/10/19 07:59:29;;;;;;;;;;;22.50;49.80;;;;;;5093669;27;19923;-73
2023/10/19 08:01:54;;;;;;;;;;;22.60;49.70;;;;;;5091432;28;20002;-74
2023/10/19 08:04:20;;;;;;;;;;;22.60;49.40;;;;;;5126086;27;19927;-74
2023/10/19 08:06:47;;;;;;;;;;;22.60;49.30;;;;;;5098239;27;19927;-75
2023/10/19 08:09:12;;;;;;;;;;;22.70;49.30;;;;;;5096281;27;20608;-75
2023/10/19 08:11:38;;;;;;;;;;;22.60;49.30;;;;;;5097299;27;19924;-75
2023/10/19 08:14:05;;;;;;;;;;;22.60;49.30;;;;;;5097934;27;20008;-76
2023/10/19 08:16:30;;;;;;;;;;;22.50;49.40;;;;;;5123606;27;19979;-74
2023/10/19 08:18:57;;;;;;;;;;;22.50;49.60;;;;;;5120001;27;19927;-73
2023/10/19 08:21:23;;;;;;;;;;;22.40;49.70;;;;;;5093154;27;19920;-73
2023/10/19 08:23:48;;;;;;;;;;;22.40;49.90;;;;;;5094261;27;19920;-74
2023/10/19 08:26:14;;;;;;;;;;;22.40;50.00;;;;;;5093173;28;19931;-74
2023/10/19 08:28:40;;;;;;;;;;;22.50;49.90;;;;;;5095308;27;19935;-75
2023/10/19 08:31:10;;;;;;;;;;;22.60;49.70;;;;;;5095967;27;19923;-74
2023/10/19 08:33:38;;;;;;;;;;;22.60;49.60;;;;;;5096527;27;19920;-79
2023/10/19 08:36:05;;;;;;;;;;;22.60;49.50;;;;;;5100116;27;19924;-74
2023/10/19 08:38:30;;;;;;;;;;;22.60;49.60;;;;;;5104732;27;19921;-76
2023/10/19 08:40:56;;;;;;;;;;;22.60;49.70;;;;;;5096065;28;19931;-77
2023/10/19 08:43:24;;;;;;;;;;;22.60;49.80;;;;;;5097156;28;19923;-76
2023/10/19 08:45:49;;;;;;;;;;;22.60;49.80;;;;;;5097160;27;19928;-74
2023/10/19 08:48:15;;;;;;;;;;;22.60;49.80;;;;;;5100966;28;20628;-74
2023/10/19 08:50:41;;;;;;;;;;;22.60;49.80;;;;;;5093488;28;20028;-72
2023/10/19 08:53:08;;;;;;;;;;;22.50;49.90;;;;;;5095915;28;20393;-72
2023/10/19 08:55:35;;;;;;;;;;;22.30;50.10;;;;;;5095798;28;19963;-73
2023/10/19 08:58:00;;;;;;;;;;;22.20;50.50;;;;;;5120902;27;20409;-75
2023/10/19 09:00:26;;;;;;;;;;;22.10;50.80;;;;;;5101032;28;19924;-75
2023/10/19 09:02:53;;;;;;;;;;;22.10;51.20;;;;;;5095969;28;19924;-69
2023/10/19 09:05:22;;;;;;;;;;;22.00;51.30;;;;;;5093616;28;19960;-68
2023/10/19 09:07:54;;;;;;;;;;;21.90;51.40;;;;;;5091774;28;19935;-70
2023/10/19 09:10:21;;;;;;;;;;;21.90;51.80;;;;;;5099602;27;19958;-69
2023/10/19 09:12:58;;;;;;;;;;;21.90;52.10;;;;;;5098639;27;19969;-69
2023/10/19 09:15:23;;;;;;;;;;;21.80;52.20;;;;;;5098568;27;19927;-69
2023/10/19 09:17:49;;;;;;;;;;;21.80;52.30;;;;;;5095065;27;19960;-69
2023/10/19 09:20:27;;;;;;;;;;;21.80;52.60;;;;;;5097312;27;19981;-68
2023/10/19 09:22:54;;;;;;;;;;;21.70;52.70;;;;;;5108892;27;19924;-68
2023/10/19 09:25:20;;;;;;;;;;;21.80;53.10;;;;;;5104004;27;19931;-69
2023/10/19 09:27:46;;;;;;;;;;;21.90;53.10;;;;;;5096992;27;19927;-70
2023/10/19 09:30:17;;;;;;;;;;;21.90;53.00;;;;;;5099409;27;19983;-69
2023/10/19 09:32:43;;;;;;;;;;;22.00;53.10;;;;;;5099794;27;19970;-68
2023/10/19 09:35:08;;;;;;;;;;;22.00;53.40;;;;;;5100987;27;19960;-68
2023/10/19 09:37:34;;;;;;;;;;;22.10;53.40;;;;;;5096692;27;19928;-68
2023/10/19 09:40:00;;;;;;;;;;;22.10;53.20;;;;;;5095106;27;19949;-68
2023/10/19 09:42:27;;;;;;;;;;;22.10;53.40;;;;;;5097767;27;19988;-66
2023/10/19 09:44:58;;;;;;;;;;;22.20;53.30;;;;;;5100483;27;19920;-67
2023/10/19 09:50:06;;;;;;;;;;;22.40;53.20;;;;;;5089442;27;19920;-74
2023/10/19 09:52:33;;;;;;;;;;;22.50;53.10;;;;;;5062144;28;19986;-74
2023/10/19 10:00:31;;;;;;;;;;;22.60;52.50;;;;;;5077537;27;19927;-74
2023/10/19 10:02:57;;;;;;;;;;;22.50;53.30;;;;;;5107815;28;19932;-72
2023/10/19 10:11:12;;;;;;;;;;;22.30;53.00;;;;;;5086738;27;19924;-73
2023/10/19 10:13:38;;;;;;;;;;;22.20;53.40;;;;;;5075753;28;19920;-73
2023/10/19 10:16:04;;;;;;;;;;;22.10;53.50;;;;;;5076361;28;20559;-70
2023/10/19 10:18:30;;;;;;;;;;;22.10;53.80;;;;;;5076578;28;20462;-70
2023/10/19 10:21:12;;;;;;;;;;;22.00;54.00;;;;;;5077821;28;20459;-70
2023/10/19 10:26:29;;;;;;;;;;;22.10;53.90;;;;;;5091469;27;20151;-70
2023/10/19 10:29:14;;;;;;;;;;;22.00;54.80;;;;;;5093026;28;20398;-71
2023/10/19 10:31:41;;;;;;;;;;;21.90;54.30;;;;;;5089203;28;20325;-71
2023/10/19 10:34:08;;;;;;;;;;;21.90;54.50;;;;;;5092714;28;19946;-71
2023/10/19 10:36:53;;;;;;;;;;;21.90;54.40;;;;;;5099993;28;19920;-71
2023/10/19 10:39:19;;;;;;;;;;;21.80;54.70;;;;;;5111739;28;20299;-70
2023/10/19 10:41:45;;;;;;;;;;;21.80;54.70;;;;;;5077791;28;19928;-74
2023/10/19 10:44:11;;;;;;;;;;;21.90;54.90;;;;;;5076318;28;20261;-76
2023/10/19 10:46:40;;;;;;;;;;;21.90;55.00;;;;;;5068306;28;19935;-75
2023/10/19 10:49:09;;;;;;;;;;;21.90;54.80;;;;;;5067897;28;19925;-73
2023/10/19 10:51:35;;;;;;;;;;;22.00;54.80;;;;;;5099067;27;19928;-73
2023/10/19 10:54:00;;;;;;;;;;;22.10;54.60;;;;;;5070123;28;19966;-74
2023/10/19 10:56:26;;;;;;;;;;;22.20;54.50;;;;;;5073278;28;19927;-75
2023/10/19 10:58:52;;;;;;;;;;;22.30;54.20;;;;;;5068844;28;19938;-82
2023/10/19 11:01:29;;;;;;;;;;;22.30;54.00;;;;;;5099943;28;20058;-78
2023/10/19 11:04:10;;;;;;;;;;;22.40;54.00;;;;;;5099837;28;19983;-76
2023/10/19 11:06:52;;;;;;;;;;;22.30;54.00;;;;;;5076736;28;19970;-77
2023/10/19 11:09:18;;;;;;;;;;;22.30;54.00;;;;;;5076442;28;19935;-76
2023/10/19 11:11:44;;;;;;;;;;;22.30;54.00;;;;;;5071247;28;19936;-76
2023/10/19 11:14:11;;;;;;;;;;;22.40;54.00;;;;;;5068592;28;20047;-75
2023/10/19 11:16:39;;;;;;;;;;;22.40;53.90;;;;;;5068292;28;19928;-74
2023/10/19 11:19:05;;;;;;;;;;;22.40;54.00;;;;;;5064873;28;19921;-76
2023/10/19 11:21:30;;;;;;;;;;;22.40;54.00;;;;;;5070693;28;19932;-73
2023/10/19 11:23:56;;;;;;;;;;;22.20;54.10;;;;;;5065568;28;19921;-73
2023/10/19 11:26:24;;;;;;;;;;;22.10;54.70;;;;;;5068597;28;19929;-74
2023/10/19 11:28:57;;;;;;;;;;;22.00;55.00;;;;;;5068047;28;19925;-73
2023/10/19 11:31:23;;;;;;;;;;;22.10;55.10;;;;;;5069259;28;19925;-74
2023/10/19 11:33:50;;;;;;;;;;;22.10;55.00;;;;;;5070396;28;19928;-74
2023/10/19 11:36:16;;;;;;;;;;;22.10;54.80;;;;;;5067861;28;20383;-76
2023/10/19 11:38:43;;;;;;;;;;;22.20;54.80;;;;;;5068338;28;19928;-73
2023/10/19 11:41:09;;;;;;;;;;;22.10;54.80;;;;;;5059236;28;19972;-73
2023/10/19 11:43:36;;;;;;;;;;;22.10;55.00;;;;;;5060050;28;19933;-72
2023/10/19 11:46:04;;;;;;;;;;;21.90;55.30;;;;;;5053073;28;20032;-68
2023/10/19 11:48:30;;;;;;;;;;;21.80;55.60;;;;;;5085154;28;19928;-73
2023/10/19 11:50:56;;;;;;;;;;;21.80;55.90;;;;;;5060195;28;19968;-73
2023/10/19 11:53:22;;;;;;;;;;;21.70;56.10;;;;;;5058307;28;20449;-69
2023/10/19 11:55:48;;;;;;;;;;;21.70;56.20;;;;;;5061282;28;19935;-72
2023/10/19 11:58:14;;;;;;;;;;;21.60;57.10;;;;;;5052120;28;19925;-71
2023/10/19 12:00:41;;;;;;;;;;;21.70;56.50;;;;;;5058650;28;19928;-70
2023/10/19 12:03:06;;;;;;;;;;;21.70;56.40;;;;;;5054250;28;20007;-76
2023/10/19 12:05:36;;;;;;;;;;;21.80;56.40;;;;;;5054609;28;20042;-74
2023/10/19 12:08:02;;;;;;;;;;;21.80;56.30;;;;;;5062914;28;20439;-76
2023/10/19 12:10:43;;;;;;;;;;;21.90;56.20;;;;;;5054911;28;19929;-76
2023/10/19 12:13:09;;;;;;;;;;;21.90;56.20;;;;;;5052400;28;19924;-78
2023/10/19 12:15:35;;;;;;;;;;;21.90;56.20;;;;;;5062203;28;19924;-79
2023/10/19 12:18:02;;;;;;;;;;;22.00;56.20;;;;;;5057334;28;19938;-77
2023/10/19 12:20:28;;;;;;;;;;;22.10;56.20;;;;;;5060668;28;20465;-80
2023/10/19 12:22:54;;;;;;;;;;;22.10;56.00;;;;;;5054606;28;19925;-77
2023/10/19 12:25:21;;;;;;;;;;;22.10;55.90;;;;;;5041739;28;20475;-78
2023/10/19 12:27:49;;;;;;;;;;;22.20;55.80;;;;;;5045377;28;19924;-75
2023/10/19 12:30:20;;;;;;;;;;;22.20;55.70;;;;;;5051808;28;19924;-78
2023/10/19 12:32:49;;;;;;;;;;;22.30;55.80;;;;;;5056568;28;19932;-74
2023/10/19 12:35:19;;;;;;;;;;;22.30;55.80;;;;;;5065889;28;20020;-73
2023/10/19 12:37:47;;;;;;;;;;;22.30;55.70;;;;;;5061188;28;20045;-75
2023/10/19 12:40:29;;;;;;;;;;;22.30;55.70;;;;;;5085266;28;19924;-75
2023/10/19 12:42:55;;;;;;;;;;;22.30;55.80;;;;;;5088433;28;19932;-74
2023/10/19 12:45:22;;;;;;;;;;;22.30;55.80;;;;;;5058942;28;19936;-74
2023/10/19 12:47:48;;;;;;;;;;;22.30;55.80;;;;;;5057817;28;19928;-74
2023/10/19 12:50:14;;;;;;;;;;;22.30;56.00;;;;;;5057021;28;20324;-76
2023/10/19 12:52:40;;;;;;;;;;;22.30;56.10;;;;;;5056440;28;19932;-74
2023/10/19 12:55:06;;;;;;;;;;;22.20;56.10;;;;;;5061845;28;20510;-74
2023/10/19 12:57:32;;;;;;;;;;;22.20;56.20;;;;;;5057241;28;19929;-74
2023/10/19 13:00:06;;;;;;;;;;;22.20;56.30;;;;;;5055573;28;19931;-78
2023/10/19 13:02:31;;;;;;;;;;;22.20;56.30;;;;;;5047390;28;19992;-77
2023/10/19 13:04:59;;;;;;;;;;;22.20;56.30;;;;;;5051997;28;20567;-77
2023/10/19 13:07:26;;;;;;;;;;;22.20;56.30;;;;;;5082815;28;20019;-77
2023/10/19 13:09:51;;;;;;;;;;;22.20;56.30;;;;;;5053328;28;19921;-77
2023/10/19 13:12:20;;;;;;;;;;;22.20;56.40;;;;;;5053094;28;21646;-76
2023/10/19 13:14:49;;;;;;;;;;;22.20;56.40;;;;;;5085091;28;20307;-73
2023/10/19 13:17:14;;;;;;;;;;;22.10;56.50;;;;;;5083128;28;19921;-72
2023/10/19 13:19:40;;;;;;;;;;;22.10;56.70;;;;;;5076757;28;19932;-72
2023/10/19 13:22:07;;;;;;;;;;;22.00;57.00;;;;;;5061455;28;19920;-80
2023/10/19 13:24:40;;;;;;;;;;;22.00;57.30;;;;;;5059795;28;19924;-70
2023/10/19 13:27:06;;;;;;;;;;;22.10;57.00;;;;;;5067820;28;19921;-83
2023/10/19 13:29:37;;;;;;;;;;;22.10;57.20;;;;;;5069280;28;20368;-72
2023/10/19 13:32:03;;;;;;;;;;;22.10;57.40;;;;;;5090826;27;20019;-73
2023/10/19 13:34:28;;;;;;;;;;;22.10;57.40;;;;;;5075643;28;20011;-76
2023/10/19 13:36:55;;;;;;;;;;;22.10;57.40;;;;;;5073005;28;19920;-73
2023/10/19 13:39:24;;;;;;;;;;;22.00;57.40;;;;;;5090126;27;19921;-72
2023/10/19 13:41:52;;;;;;;;;;;22.00;57.50;;;;;;5062535;28;19932;-73
2023/10/19 13:44:20;;;;;;;;;;;22.00;57.70;;;;;;5067032;28;19924;-74
2023/10/19 13:46:46;;;;;;;;;;;21.90;57.90;;;;;;5080186;28;19920;-73
2023/10/19 13:49:11;;;;;;;;;;;21.80;57.90;;;;;;5079006;28;20041;-73
2023/10/19 13:51:39;;;;;;;;;;;21.80;58.20;;;;;;5073271;28;19924;-71
2023/10/19 13:54:05;;;;;;;;;;;21.70;58.40;;;;;;5075538;28;19954;-76
2023/10/19 13:56:30;;;;;;;;;;;21.70;58.70;;;;;;5078634;28;19978;-76
2023/10/19 13:58:56;;;;;;;;;;;21.80;59.40;;;;;;5075789;28;19963;-76
2023/10/19 14:01:24;;;;;;;;;;;21.90;58.30;;;;;;5076594;28;19924;-75
2023/10/19 14:03:51;;;;;;;;;;;22.00;58.00;;;;;;5079905;28;20036;-76
2023/10/19 14:06:17;;;;;;;;;;;22.10;57.70;;;;;;5077079;28;19925;-76
2023/10/19 14:08:45;;;;;;;;;;;22.20;57.50;;;;;;5079041;28;19926;-76
2023/10/19 14:11:11;;;;;;;;;;;22.20;57.20;;;;;;5080472;28;19923;-76
2023/10/19 14:13:36;;;;;;;;;;;22.20;57.00;;;;;;5072141;28;19927;-76
2023/10/19 14:16:06;;;;;;;;;;;22.20;56.90;;;;;;5081421;28;19920;-76
2023/10/19 14:18:31;;;;;;;;;;;22.20;56.90;;;;;;5072527;28;20030;-76
2023/10/19 14:20:57;;;;;;;;;;;22.20;56.80;;;;;;5073690;28;19943;-76
2023/10/19 14:23:24;;;;;;;;;;;22.20;56.90;;;;;;5079275;28;19967;-75
2023/10/19 14:25:50;;;;;;;;;;;22.10;56.90;;;;;;5067063;28;19924;-75
2023/10/19 14:28:15;;;;;;;;;;;22.10;56.90;;;;;;5080774;28;19921;-75
2023/10/19 14:30:41;;;;;;;;;;;22.00;57.00;;;;;;5078457;28;20292;-74
2023/10/19 14:33:10;;;;;;;;;;;22.00;57.00;;;;;;5082740;28;20384;-74
2023/10/19 14:35:39;;;;;;;;;;;22.00;57.10;;;;;;5087436;28;20396;-74
2023/10/19 14:38:06;;;;;;;;;;;21.80;57.10;;;;;;5086260;28;20014;-74
2023/10/19 14:40:32;;;;;;;;;;;21.80;57.30;;;;;;5087381;28;20023;-74
2023/10/19 14:42:57;;;;;;;;;;;21.70;57.40;;;;;;5077141;28;20512;-72